createdAt,value
2022-11-18T00:01:31.651Z,14.24
2022-11-18T00:04:01.805Z,14.23
2022-11-18T00:06:31.045Z,14.25
2022-11-18T00:09:00.411Z,14.23
2022-11-18T00:11:49.132Z,14.22
2022-11-18T00:14:23.243Z,14.22
2022-11-18T00:16:55.275Z,14.23
2022-11-18T00:19:27.044Z,14.24
2022-11-18T00:21:56.507Z,14.22
2022-11-18T00:24:25.943Z,14.22
2022-11-18T00:26:54.759Z,14.22
2022-11-18T00:29:24.052Z,14.21
2022-11-18T00:31:52.860Z,14.22
2022-11-18T00:34:21.412Z,14.22
2022-11-18T00:36:51.420Z,14.24
2022-11-18T00:39:21.400Z,14.23
2022-11-18T00:42:08.266Z,14.23
2022-11-18T00:44:36.954Z,14.21
2022-11-18T00:47:06.035Z,14.19
2022-11-18T00:49:34.543Z,14.21
2022-11-18T00:52:05.527Z,14.23
2022-11-18T00:54:34.065Z,14.21
2022-11-18T00:57:04.137Z,14.21
2022-11-18T00:59:32.675Z,14.21
2022-11-18T01:02:01.186Z,14.20
2022-11-18T01:04:29.885Z,14.20
2022-11-18T01:06:58.511Z,14.20
2022-11-18T01:09:28.453Z,14.19
2022-11-18T01:12:14.408Z,14.19
2022-11-18T01:14:43.000Z,14.20
2022-11-18T01:17:11.536Z,14.20
2022-11-18T01:19:40.081Z,14.19
2022-11-18T01:22:08.713Z,14.20
2022-11-18T01:24:38.567Z,14.19
2022-11-18T01:27:07.163Z,14.18
2022-11-18T01:29:35.702Z,14.18
2022-11-18T01:34:52.779Z,14.18
2022-11-18T01:37:21.453Z,14.18
2022-11-18T01:39:51.329Z,14.18
2022-11-18T01:42:19.816Z,14.17
2022-11-18T01:45:09.618Z,14.17
2022-11-18T01:47:42.576Z,14.16
2022-11-18T01:50:11.730Z,14.17
2022-11-18T01:52:41.231Z,14.17
2022-11-18T01:55:14.685Z,14.17
2022-11-18T01:57:43.476Z,14.15
2022-11-18T02:00:13.456Z,14.17
2022-11-18T02:02:41.971Z,14.15
2022-11-18T02:05:12.032Z,14.13
2022-11-18T02:07:43.095Z,14.15
2022-11-18T02:10:21.052Z,14.15
2022-11-18T02:12:50.580Z,14.12
2022-11-18T02:15:21.187Z,14.13
2022-11-18T02:17:54.020Z,14.14
2022-11-18T02:20:37.194Z,14.16
2022-11-18T02:23:38.493Z,14.15
2022-11-18T02:26:39.804Z,14.14
2022-11-18T02:29:11.452Z,14.15
2022-11-18T02:31:47.371Z,14.15
2022-11-18T02:34:22.016Z,14.15
2022-11-18T02:36:53.976Z,14.15
2022-11-18T02:39:24.844Z,14.13
2022-11-18T02:41:55.169Z,14.13
2022-11-18T02:44:26.386Z,14.14
2022-11-18T02:46:59.321Z,14.15
2022-11-18T02:49:34.934Z,14.13
2022-11-18T02:52:03.928Z,14.14
2022-11-18T02:54:34.133Z,14.13
2022-11-18T02:57:03.561Z,14.13
2022-11-18T02:59:33.487Z,14.14
2022-11-18T03:02:02.124Z,14.13
2022-11-18T03:04:31.814Z,14.13
2022-11-18T03:07:05.713Z,14.13
2022-11-18T03:09:36.625Z,14.13
2022-11-18T03:12:18.678Z,14.14
2022-11-18T03:14:53.606Z,14.13
2022-11-18T03:17:26.994Z,14.14
2022-11-18T03:20:06.801Z,14.13
2022-11-18T03:22:38.740Z,14.13
2022-11-18T03:25:09.272Z,14.13
2022-11-18T03:27:41.005Z,14.13
2022-11-18T03:30:14.758Z,14.12
2022-11-18T03:32:45.654Z,14.11
2022-11-18T03:35:17.186Z,14.12
2022-11-18T03:37:46.019Z,14.13
2022-11-18T03:40:19.168Z,14.11
2022-11-18T03:42:51.167Z,14.11
2022-11-18T03:45:25.785Z,14.12
2022-11-18T03:47:57.290Z,14.12
2022-11-18T03:50:28.171Z,14.13
2022-11-18T03:52:56.877Z,14.12
2022-11-18T03:55:28.256Z,14.11
2022-11-18T03:57:59.877Z,14.11
2022-11-18T04:00:33.795Z,14.12
2022-11-18T04:03:02.374Z,14.09
2022-11-18T04:05:32.412Z,14.12
2022-11-18T04:08:03.254Z,14.10
2022-11-18T04:10:34.919Z,14.12
2022-11-18T04:13:07.114Z,14.11
2022-11-18T04:15:40.168Z,14.11
2022-11-18T04:18:09.735Z,14.11
2022-11-18T04:20:38.798Z,14.10
2022-11-18T04:23:08.214Z,14.10
2022-11-18T04:25:36.805Z,14.11
2022-11-18T04:28:05.730Z,14.11
2022-11-18T04:30:34.960Z,14.11
2022-11-18T04:33:05.218Z,14.11
2022-11-18T04:35:33.753Z,14.11
2022-11-18T04:38:03.647Z,14.11
2022-11-18T04:40:33.278Z,14.10
2022-11-18T04:43:01.759Z,14.10
2022-11-18T04:45:30.327Z,14.10
2022-11-18T04:48:03.342Z,14.11
2022-11-18T04:50:33.717Z,14.09
2022-11-18T04:53:02.244Z,14.09
2022-11-18T04:55:30.731Z,14.10
2022-11-18T04:57:59.216Z,14.09
2022-11-18T05:00:27.688Z,14.09
2022-11-18T05:02:57.495Z,14.09
2022-11-18T05:05:26.005Z,14.10
2022-11-18T05:07:55.976Z,14.09
2022-11-18T05:10:24.467Z,14.10
2022-11-18T05:12:52.566Z,14.09
2022-11-18T05:15:23.995Z,14.09
2022-11-18T05:17:52.615Z,14.09
2022-11-18T05:20:21.564Z,14.08
2022-11-18T05:22:50.114Z,14.08
2022-11-18T05:25:20.583Z,14.08
2022-11-18T05:27:49.156Z,14.08
2022-11-18T05:30:17.743Z,14.08
2022-11-18T05:32:46.257Z,14.07
2022-11-18T05:35:14.960Z,14.08
2022-11-18T05:37:43.542Z,14.08
2022-11-18T05:40:12.588Z,14.08
2022-11-18T05:42:59.919Z,14.07
2022-11-18T05:45:28.396Z,14.07
2022-11-18T05:48:04.429Z,14.06
2022-11-18T05:50:35.113Z,14.05
2022-11-18T05:53:04.575Z,14.07
2022-11-18T05:55:37.085Z,14.07
2022-11-18T05:58:06.896Z,14.06
2022-11-18T06:00:35.665Z,14.07
2022-11-18T06:03:06.011Z,14.08
2022-11-18T06:05:34.590Z,14.05
2022-11-18T06:08:03.481Z,14.06
2022-11-18T06:10:34.369Z,14.05
2022-11-18T06:13:07.812Z,14.04
2022-11-18T06:15:39.050Z,14.05
2022-11-18T06:18:10.223Z,14.04
2022-11-18T06:20:40.547Z,14.05
2022-11-18T06:23:09.010Z,14.05
2022-11-18T06:25:38.812Z,14.04
2022-11-18T06:28:10.973Z,14.04
2022-11-18T06:30:39.939Z,14.05
2022-11-18T06:33:08.876Z,14.05
2022-11-18T06:35:37.378Z,14.04
2022-11-18T06:38:05.929Z,14.05
2022-11-18T06:40:35.213Z,14.05
2022-11-18T06:43:26.121Z,14.06
2022-11-18T06:46:09.518Z,14.04
2022-11-18T06:48:38.865Z,14.03
2022-11-18T06:51:08.114Z,14.03
2022-11-18T06:53:36.850Z,14.03
2022-11-18T06:56:05.877Z,14.04
2022-11-18T06:58:35.872Z,14.04
2022-11-18T07:01:11.647Z,14.04
2022-11-18T07:03:40.850Z,14.03
2022-11-18T07:06:10.580Z,14.04
2022-11-18T07:08:40.700Z,14.03
2022-11-18T07:11:10.984Z,14.03
2022-11-18T07:13:43.714Z,14.01
2022-11-18T07:16:14.464Z,14.02
2022-11-18T07:18:43.971Z,14.03
2022-11-18T07:21:14.235Z,14.00
2022-11-18T07:23:42.973Z,14.02
2022-11-18T07:26:11.724Z,14.00
2022-11-18T07:28:41.583Z,14.02
2022-11-18T07:31:11.736Z,14.01
2022-11-18T07:33:41.800Z,13.97
2022-11-18T07:36:12.128Z,13.98
2022-11-18T07:38:43.035Z,13.96
2022-11-18T07:41:13.368Z,13.98
2022-11-18T07:43:43.641Z,13.97
2022-11-18T07:46:17.400Z,13.97
2022-11-18T07:48:48.277Z,13.97
2022-11-18T07:51:18.010Z,13.97
2022-11-18T07:53:47.244Z,13.98
2022-11-18T07:56:17.249Z,13.98
2022-11-18T07:58:47.427Z,13.97
2022-11-18T08:01:17.659Z,13.94
2022-11-18T08:03:47.740Z,13.94
2022-11-18T08:06:17.843Z,13.94
2022-11-18T08:08:46.989Z,13.94
2022-11-18T08:11:21.856Z,13.92
2022-11-18T08:13:53.831Z,13.91
2022-11-18T08:16:23.648Z,13.88
2022-11-18T08:18:53.072Z,13.87
2022-11-18T08:21:23.182Z,13.87
2022-11-18T08:23:52.257Z,13.89
2022-11-18T08:26:21.093Z,13.86
2022-11-18T08:28:49.935Z,13.84
2022-11-18T08:31:21.515Z,13.79
2022-11-18T08:33:50.005Z,13.82
2022-11-18T08:36:20.415Z,13.89
2022-11-18T08:38:49.382Z,13.88
2022-11-18T08:41:19.586Z,13.90
2022-11-18T08:43:48.123Z,13.92
2022-11-18T08:46:16.647Z,13.90
2022-11-18T08:48:46.577Z,13.92
2022-11-18T08:51:15.734Z,13.89
2022-11-18T08:53:44.786Z,13.92
2022-11-18T08:56:16.213Z,13.94
2022-11-18T08:58:45.209Z,13.91
2022-11-18T09:01:13.816Z,13.93
2022-11-18T09:03:42.533Z,13.94
2022-11-18T09:06:14.255Z,13.94
2022-11-18T09:08:43.127Z,13.95
2022-11-18T09:11:12.783Z,13.89
2022-11-18T09:16:31.748Z,13.92
2022-11-18T09:19:18.148Z,13.85
2022-11-18T09:21:50.570Z,13.82
2022-11-18T09:24:19.295Z,13.84
2022-11-18T09:26:48.169Z,13.87
2022-11-18T09:29:16.858Z,13.90
2022-11-18T09:31:45.340Z,13.89
2022-11-18T09:34:13.820Z,13.87
2022-11-18T09:36:42.325Z,13.85
2022-11-18T09:39:12.196Z,13.91
2022-11-18T09:41:46.987Z,13.92
2022-11-18T09:44:26.284Z,13.93
2022-11-18T09:47:01.289Z,13.94
2022-11-18T09:49:32.178Z,13.92
2022-11-18T09:52:04.236Z,13.93
2022-11-18T09:54:36.089Z,13.87
2022-11-18T09:57:11.906Z,13.91
2022-11-18T09:59:40.577Z,13.92
2022-11-18T10:02:35.423Z,13.94
2022-11-18T10:05:15.053Z,13.94
2022-11-18T10:07:50.658Z,13.91
2022-11-18T10:10:24.376Z,13.92
2022-11-18T10:12:57.638Z,13.90
2022-11-18T10:15:31.009Z,13.95
2022-11-18T10:18:05.108Z,13.94
2022-11-18T10:20:40.952Z,13.90
2022-11-18T10:23:15.813Z,13.93
2022-11-18T10:25:45.815Z,13.93
2022-11-18T10:28:23.731Z,13.96
2022-11-18T10:30:53.596Z,13.95
2022-11-18T10:33:27.004Z,13.97
2022-11-18T10:36:28.096Z,13.97
2022-11-18T10:39:10.703Z,14.00
2022-11-18T10:41:51.323Z,14.01
2022-11-18T10:44:31.574Z,14.01
2022-11-18T10:47:26.735Z,14.00
2022-11-18T10:49:57.206Z,14.01
2022-11-18T10:52:26.213Z,14.01
2022-11-18T10:55:20.903Z,14.02
2022-11-18T10:57:52.448Z,14.03
2022-11-18T11:00:41.356Z,14.02
2022-11-18T11:03:27.522Z,14.02
2022-11-18T11:06:24.674Z,14.04
2022-11-18T11:08:54.997Z,14.01
2022-11-18T11:11:26.561Z,14.02
2022-11-18T11:14:02.800Z,14.00
2022-11-18T11:16:31.957Z,14.00
2022-11-18T11:19:02.138Z,14.00
2022-11-18T11:21:31.167Z,13.96
2022-11-18T11:23:59.779Z,14.00
2022-11-18T11:29:35.112Z,14.00
2022-11-18T11:32:11.638Z,14.00
2022-11-18T11:34:45.013Z,14.01
2022-11-18T11:37:21.356Z,14.00
2022-11-18T11:40:13.510Z,14.00
2022-11-18T11:42:48.621Z,14.01
2022-11-18T11:45:25.756Z,13.95
2022-11-18T11:48:14.861Z,13.95
2022-11-18T11:51:02.006Z,13.97
2022-11-18T11:53:56.940Z,14.01
2022-11-18T11:56:28.447Z,14.00
2022-11-18T11:59:18.406Z,13.99
2022-11-18T12:01:58.955Z,14.00
2022-11-18T12:04:39.077Z,13.98
2022-11-18T12:07:08.780Z,14.00
2022-11-18T12:09:51.698Z,14.00
2022-11-18T12:12:38.201Z,13.98
2022-11-18T12:15:20.543Z,13.95
2022-11-18T12:17:57.280Z,13.99
2022-11-18T12:20:41.654Z,13.99
2022-11-18T12:23:12.451Z,13.96
2022-11-18T12:26:08.811Z,13.96
2022-11-18T12:28:41.255Z,13.98
2022-11-18T12:31:31.891Z,13.99
2022-11-18T12:34:03.671Z,14.00
2022-11-18T12:36:35.462Z,14.00
2022-11-18T12:39:40.731Z,13.99
2022-11-18T12:42:56.854Z,13.98
2022-11-18T12:46:01.860Z,13.98
2022-11-18T12:48:41.102Z,13.94
2022-11-18T12:51:44.911Z,13.91
2022-11-18T12:54:32.580Z,13.90
2022-11-18T12:57:03.380Z,13.90
2022-11-18T12:59:34.289Z,13.91
2022-11-18T13:02:04.499Z,13.90
2022-11-18T13:04:33.157Z,13.91
2022-11-18T13:07:02.644Z,13.91
2022-11-18T13:09:35.867Z,13.90
2022-11-18T13:12:08.665Z,13.94
2022-11-18T13:14:58.896Z,13.97
2022-11-18T13:17:47.582Z,13.94
2022-11-18T13:20:24.471Z,13.88
2022-11-18T13:23:10.882Z,13.86
2022-11-18T13:25:42.599Z,13.86
2022-11-18T13:28:20.283Z,13.91
2022-11-18T13:30:53.907Z,13.90
2022-11-18T13:33:22.679Z,13.91
2022-11-18T13:35:51.147Z,13.91
2022-11-18T13:38:27.729Z,13.86
2022-11-18T13:41:08.271Z,13.85
2022-11-18T13:43:37.027Z,13.89
2022-11-18T13:46:08.227Z,13.91
2022-11-18T13:48:38.606Z,13.92
2022-11-18T13:51:07.306Z,13.85
2022-11-18T13:53:38.490Z,13.83
2022-11-18T13:56:17.211Z,13.90
2022-11-18T14:01:36.350Z,13.91
2022-11-18T14:04:05.944Z,13.91
2022-11-18T14:06:35.722Z,13.91
2022-11-18T14:09:07.221Z,13.88
2022-11-18T14:11:38.841Z,13.90
2022-11-18T14:14:07.823Z,13.91
2022-11-18T14:16:37.568Z,13.88
2022-11-18T14:19:06.841Z,13.88
2022-11-18T14:21:38.199Z,13.89
2022-11-18T14:24:07.044Z,13.90
2022-11-18T14:26:38.448Z,13.87
2022-11-18T14:29:21.031Z,13.86
2022-11-18T14:32:05.825Z,13.89
2022-11-18T14:34:34.276Z,13.88
2022-11-18T14:37:03.890Z,13.91
2022-11-18T14:39:33.743Z,13.93
2022-11-18T14:42:05.670Z,13.92
2022-11-18T14:44:34.385Z,13.93
2022-11-18T14:47:05.708Z,13.94
2022-11-18T14:49:34.148Z,13.94
2022-11-18T14:52:04.521Z,13.92
2022-11-18T14:54:33.442Z,13.92
2022-11-18T14:57:05.675Z,13.91
2022-11-18T14:59:34.187Z,13.87
2022-11-18T15:02:02.751Z,13.88
2022-11-18T15:04:32.285Z,13.87
2022-11-18T15:07:01.046Z,13.84
2022-11-18T15:09:29.615Z,13.87
2022-11-18T15:11:58.087Z,13.87
2022-11-18T15:14:28.030Z,13.87
2022-11-18T15:16:56.484Z,13.85
2022-11-18T15:19:24.997Z,13.86
2022-11-18T15:21:53.499Z,13.87
2022-11-18T15:24:21.956Z,13.87
2022-11-18T15:26:50.747Z,13.87
2022-11-18T15:29:20.662Z,13.89
2022-11-18T15:31:50.888Z,13.86
2022-11-18T15:34:21.772Z,13.82
2022-11-18T15:36:50.672Z,13.86
2022-11-18T15:39:19.412Z,13.86
2022-11-18T15:41:47.881Z,13.87
2022-11-18T15:44:17.354Z,13.85
2022-11-18T15:46:47.889Z,13.88
2022-11-18T15:49:18.815Z,13.88
2022-11-18T15:51:47.551Z,13.85
2022-11-18T15:54:16.237Z,13.86
2022-11-18T15:56:44.915Z,13.88
2022-11-18T15:59:14.732Z,13.89
2022-11-18T16:01:44.695Z,13.87
2022-11-18T16:04:15.959Z,13.85
2022-11-18T16:06:46.019Z,13.84
2022-11-18T16:09:15.557Z,13.86
2022-11-18T16:12:01.811Z,13.87
2022-11-18T16:14:30.452Z,13.89
2022-11-18T16:16:59.125Z,13.89
2022-11-18T16:19:31.386Z,13.87
2022-11-18T16:22:01.350Z,13.87
2022-11-18T16:24:30.344Z,13.89
2022-11-18T16:26:58.991Z,13.85
2022-11-18T16:29:27.576Z,13.87
2022-11-18T16:31:55.162Z,13.87
2022-11-18T16:34:25.906Z,13.86
2022-11-18T16:36:55.898Z,13.87
2022-11-18T16:39:27.347Z,13.86
2022-11-18T16:42:02.098Z,13.87
2022-11-18T16:44:35.309Z,13.86
2022-11-18T16:47:08.980Z,13.82
2022-11-18T16:49:39.202Z,13.86
2022-11-18T16:52:08.306Z,13.84
2022-11-18T16:54:44.227Z,13.85
2022-11-18T16:57:14.213Z,13.82
2022-11-18T16:59:42.961Z,13.85
2022-11-18T17:02:12.906Z,13.85
2022-11-18T17:04:41.737Z,13.88
2022-11-18T17:07:10.298Z,13.84
2022-11-18T17:09:40.575Z,13.81
2022-11-18T17:12:09.288Z,13.80
2022-11-18T17:14:38.525Z,13.81
2022-11-18T17:17:07.407Z,13.81
2022-11-18T17:19:36.616Z,13.81
2022-11-18T17:22:05.603Z,13.87
2022-11-18T17:24:34.193Z,13.83
2022-11-18T17:27:07.577Z,13.81
2022-11-18T17:29:36.196Z,13.86
2022-11-18T17:32:05.131Z,13.88
2022-11-18T17:34:33.984Z,13.89
2022-11-18T17:37:06.795Z,13.89
2022-11-18T17:39:36.284Z,13.88
2022-11-18T17:42:17.746Z,13.88
2022-11-18T17:44:46.706Z,13.87
2022-11-18T17:47:15.475Z,13.87
2022-11-18T17:49:44.165Z,13.86
2022-11-18T17:52:12.823Z,13.86
2022-11-18T17:54:41.500Z,13.81
2022-11-18T17:57:11.607Z,13.80
2022-11-18T17:59:40.462Z,13.84
2022-11-18T18:02:11.182Z,13.86
2022-11-18T18:04:39.852Z,13.87
2022-11-18T18:07:08.786Z,13.79
2022-11-18T18:09:37.954Z,13.76
2022-11-18T18:12:27.268Z,13.74
2022-11-18T18:14:56.339Z,13.65
2022-11-18T18:17:25.020Z,13.61
2022-11-18T18:19:54.073Z,13.63
2022-11-18T18:22:22.673Z,13.65
2022-11-18T18:24:51.322Z,13.67
2022-11-18T18:27:19.835Z,13.69
2022-11-18T18:29:48.488Z,13.61
2022-11-18T18:32:18.535Z,13.73
2022-11-18T18:34:47.027Z,13.66
2022-11-18T18:37:15.766Z,13.66
2022-11-18T18:39:45.469Z,13.63
2022-11-18T18:42:13.999Z,13.63
2022-11-18T18:45:00.050Z,13.64
2022-11-18T18:47:30.213Z,13.66
2022-11-18T18:49:59.185Z,13.65
2022-11-18T18:52:28.601Z,13.58
2022-11-18T18:54:57.107Z,13.58
2022-11-18T18:57:25.797Z,13.61
2022-11-18T18:59:54.517Z,13.55
2022-11-18T19:02:23.337Z,13.61
2022-11-18T19:04:55.747Z,13.63
2022-11-18T19:07:24.436Z,13.68
2022-11-18T19:09:53.120Z,13.73
2022-11-18T19:12:39.158Z,13.76
2022-11-18T19:15:08.548Z,13.73
2022-11-18T19:17:37.337Z,13.76
2022-11-18T19:20:26.326Z,13.78
2022-11-18T19:22:54.885Z,13.75
2022-11-18T19:25:23.446Z,13.72
2022-11-18T19:27:52.128Z,13.74
2022-11-18T19:30:20.978Z,13.75
2022-11-18T19:32:50.587Z,13.74
2022-11-18T19:35:20.734Z,13.76
2022-11-18T19:37:49.596Z,13.76
2022-11-18T19:40:20.316Z,13.76
2022-11-18T19:42:50.093Z,13.73
2022-11-18T19:45:19.639Z,13.75
2022-11-18T19:47:48.278Z,13.72
2022-11-18T19:50:17.673Z,13.77
2022-11-18T19:52:50.012Z,13.76
2022-11-18T19:55:18.554Z,13.76
2022-11-18T19:57:47.103Z,13.77
2022-11-18T20:00:17.177Z,13.76
2022-11-18T20:02:45.854Z,13.78
2022-11-18T20:05:31.988Z,13.76
2022-11-18T20:08:02.003Z,13.74
2022-11-18T20:10:30.860Z,13.76
2022-11-18T20:12:59.863Z,13.76
2022-11-18T20:15:28.707Z,13.72
2022-11-18T20:17:57.320Z,13.75
2022-11-18T20:20:26.023Z,13.75
2022-11-18T20:22:55.040Z,13.75
2022-11-18T20:25:25.357Z,13.76
2022-11-18T20:27:54.035Z,13.77
2022-11-18T20:30:22.791Z,13.77
2022-11-18T20:32:51.878Z,13.77
2022-11-18T20:35:20.346Z,13.76
2022-11-18T20:37:48.916Z,13.76
2022-11-18T20:40:17.956Z,13.72
2022-11-18T20:43:05.904Z,13.74
2022-11-18T20:45:34.486Z,13.74
2022-11-18T20:48:03.127Z,13.69
2022-11-18T20:50:31.651Z,13.72
2022-11-18T20:53:00.307Z,13.65
2022-11-18T20:55:29.260Z,13.66
2022-11-18T20:57:59.421Z,13.69
2022-11-18T21:00:28.175Z,13.62
2022-11-18T21:02:57.345Z,13.60
2022-11-18T21:05:25.982Z,13.56
2022-11-18T21:07:55.130Z,13.58
2022-11-18T21:10:23.623Z,13.58
2022-11-18T21:13:09.826Z,13.62
2022-11-18T21:15:40.664Z,13.64
2022-11-18T21:18:09.307Z,13.64
2022-11-18T21:21:01.173Z,13.65
2022-11-18T21:23:29.806Z,13.62
2022-11-18T21:25:58.321Z,13.62
2022-11-18T21:28:28.718Z,13.53
2022-11-18T21:30:58.638Z,13.51
2022-11-18T21:33:27.215Z,13.52
2022-11-18T21:35:59.310Z,13.55
2022-11-18T21:38:28.086Z,13.50
2022-11-18T21:40:56.607Z,13.49
2022-11-18T21:43:50.219Z,13.43
2022-11-18T21:46:16.606Z,13.46
2022-11-18T21:48:45.864Z,13.53
2022-11-18T21:51:16.878Z,13.56
2022-11-18T21:53:45.891Z,13.53
2022-11-18T21:56:15.767Z,13.50
2022-11-18T21:58:44.813Z,13.53
2022-11-18T22:01:16.484Z,13.53
2022-11-18T22:03:50.838Z,13.44
2022-11-18T22:06:23.186Z,13.50
2022-11-18T22:08:52.158Z,13.52
2022-11-18T22:11:22.406Z,13.54
2022-11-18T22:13:52.074Z,13.51
2022-11-18T22:16:23.809Z,13.47
2022-11-18T22:18:59.214Z,13.48
2022-11-18T22:21:31.105Z,13.47
2022-11-18T22:24:00.661Z,13.54
2022-11-18T22:26:29.869Z,13.53
2022-11-18T22:28:59.315Z,13.55
2022-11-18T22:31:29.509Z,13.52
2022-11-18T22:33:58.129Z,13.55
2022-11-18T22:36:27.660Z,13.56
2022-11-18T22:38:56.661Z,13.55
2022-11-18T22:41:44.360Z,13.54
2022-11-18T22:44:14.051Z,13.54
2022-11-18T22:46:45.381Z,13.55
2022-11-18T22:49:14.395Z,13.57
2022-11-18T22:51:42.994Z,13.60
2022-11-18T22:57:00.422Z,13.58
2022-11-18T22:59:29.073Z,13.56
2022-11-18T23:01:59.215Z,13.54
2022-11-18T23:04:27.757Z,13.52
2022-11-18T23:06:56.345Z,13.51
2022-11-18T23:09:24.839Z,13.49
2022-11-18T23:12:10.944Z,13.46
2022-11-18T23:14:39.448Z,13.43
2022-11-18T23:17:09.371Z,13.40
2022-11-18T23:19:42.014Z,13.54
2022-11-18T23:22:10.931Z,13.57
2022-11-18T23:24:39.528Z,13.53
2022-11-18T23:27:08.154Z,13.53
2022-11-18T23:29:36.832Z,13.49
2022-11-18T23:32:05.851Z,13.43
2022-11-18T23:34:35.772Z,13.45
2022-11-18T23:37:04.323Z,13.51
2022-11-18T23:39:32.799Z,13.55
2022-11-18T23:42:01.315Z,13.55
2022-11-18T23:44:50.173Z,13.52
2022-11-18T23:47:18.721Z,13.53
2022-11-18T23:49:48.589Z,13.42
2022-11-18T23:52:17.484Z,13.45
2022-11-18T23:54:46.116Z,13.46
2022-11-18T23:57:14.638Z,13.41
2022-11-18T23:59:43.236Z,13.37
